createdAt,value
2023-05-22T00:00:08.137Z,7.03
2023-05-22T00:02:39.107Z,7.77
2023-05-22T00:05:07.556Z,7.77
2023-05-22T00:07:35.004Z,7.93
2023-05-22T00:10:03.819Z,7.77
2023-05-22T00:12:31.262Z,7.53
2023-05-22T00:14:58.728Z,7.67
2023-05-22T00:17:26.416Z,8.27
2023-05-22T00:19:55.106Z,7.70
2023-05-22T00:22:22.625Z,7.87
2023-05-22T00:24:50.093Z,7.47
2023-05-22T00:27:18.899Z,7.47
2023-05-22T00:29:46.545Z,7.57
2023-05-22T00:32:14.016Z,7.03
2023-05-22T00:34:41.479Z,7.30
2023-05-22T00:37:09.081Z,7.70
2023-05-22T00:39:36.530Z,8.27
2023-05-22T00:42:04.088Z,7.67
2023-05-22T00:44:32.930Z,7.27
2023-05-22T00:47:00.964Z,7.30
2023-05-22T00:49:28.448Z,8.27
2023-05-22T00:51:55.976Z,8.13
2023-05-22T00:54:23.936Z,7.70
2023-05-22T00:56:51.765Z,8.57
2023-05-22T00:59:20.954Z,8.47
2023-05-22T01:01:49.963Z,7.60
2023-05-22T01:04:18.449Z,7.87
2023-05-22T01:06:47.380Z,8.50
2023-05-22T01:09:15.493Z,7.97
2023-05-22T01:11:46.915Z,7.87
2023-05-22T01:14:22.134Z,8.43
2023-05-22T01:16:54.694Z,8.10
2023-05-22T01:19:33.439Z,8.63
2023-05-22T01:22:08.375Z,9.13
2023-05-22T01:24:53.490Z,9.10
2023-05-22T01:27:29.610Z,8.50
2023-05-22T01:30:05.108Z,8.87
2023-05-22T01:32:35.755Z,8.97
2023-05-22T01:35:04.318Z,8.57
2023-05-22T01:37:32.272Z,8.70
2023-05-22T01:39:59.974Z,9.20
2023-05-22T01:42:27.529Z,8.80
2023-05-22T01:44:54.989Z,9.17
2023-05-22T01:47:23.232Z,8.80
2023-05-22T01:49:53.580Z,9.17
2023-05-22T01:52:23.036Z,8.90
2023-05-22T01:54:53.658Z,8.70
2023-05-22T01:57:27.413Z,8.97
2023-05-22T01:59:56.923Z,9.97
2023-05-22T02:02:25.179Z,9.50
2023-05-22T02:04:57.126Z,8.93
2023-05-22T02:07:25.930Z,8.63
2023-05-22T02:09:54.807Z,9.00
2023-05-22T02:12:22.886Z,8.97
2023-05-22T02:14:50.580Z,8.60
2023-05-22T02:17:18.574Z,8.70
2023-05-22T02:19:46.011Z,9.00
2023-05-22T02:22:14.845Z,7.93
2023-05-22T02:24:42.741Z,8.60
2023-05-22T02:27:10.570Z,8.03
2023-05-22T02:29:38.126Z,9.20
2023-05-22T02:32:06.192Z,8.37
2023-05-22T02:34:33.644Z,8.07
2023-05-22T02:37:03.555Z,8.40
2023-05-22T02:39:32.831Z,8.23
2023-05-22T02:42:00.756Z,8.90
2023-05-22T02:44:28.247Z,8.47
2023-05-22T02:46:55.877Z,8.57
2023-05-22T02:49:23.487Z,7.83
2023-05-22T02:51:50.952Z,8.33
2023-05-22T02:54:18.395Z,8.67
2023-05-22T02:56:47.173Z,8.40
2023-05-22T02:59:14.660Z,8.37
2023-05-22T03:01:44.292Z,9.10
2023-05-22T03:04:12.676Z,9.40
2023-05-22T03:06:40.372Z,8.60
2023-05-22T03:09:08.596Z,8.57
2023-05-22T03:11:36.059Z,8.17
2023-05-22T03:14:04.874Z,8.20
2023-05-22T03:16:32.796Z,7.80
2023-05-22T03:19:08.439Z,8.70
2023-05-22T03:21:36.247Z,8.73
2023-05-22T03:24:03.820Z,8.67
2023-05-22T03:26:31.495Z,8.17
2023-05-22T03:28:59.504Z,8.70
2023-05-22T03:31:31.316Z,8.07
2023-05-22T03:34:06.020Z,8.47
2023-05-22T03:36:35.084Z,8.50
2023-05-22T03:39:02.628Z,8.03
2023-05-22T03:41:31.461Z,8.97
2023-05-22T03:43:59.049Z,7.77
2023-05-22T03:46:27.038Z,8.17
2023-05-22T03:48:56.197Z,7.90
2023-05-22T03:51:25.250Z,8.03
2023-05-22T03:53:52.720Z,7.80
2023-05-22T03:56:21.142Z,8.03
2023-05-22T03:58:50.060Z,8.57
2023-05-22T04:01:17.909Z,7.63
2023-05-22T04:03:45.442Z,7.43
2023-05-22T04:06:14.652Z,7.83
2023-05-22T04:08:42.147Z,8.00
2023-05-22T04:11:09.638Z,8.03
2023-05-22T04:13:37.100Z,7.80
2023-05-22T04:16:04.749Z,8.07
2023-05-22T04:18:32.252Z,8.00
2023-05-22T04:20:59.798Z,8.23
2023-05-22T04:23:28.528Z,7.70
2023-05-22T04:25:55.974Z,9.10
2023-05-22T04:28:23.477Z,8.57
2023-05-22T04:30:51.019Z,8.00
2023-05-22T04:33:19.058Z,8.20
2023-05-22T04:35:46.535Z,8.60
2023-05-22T04:38:14.055Z,8.27
2023-05-22T04:40:43.527Z,8.70
2023-05-22T04:43:11.562Z,8.17
2023-05-22T04:45:39.234Z,7.60
2023-05-22T04:48:07.988Z,8.23
2023-05-22T04:50:38.651Z,8.10
2023-05-22T04:53:06.600Z,8.70
2023-05-22T04:55:34.725Z,8.57
2023-05-22T04:58:03.709Z,8.47
2023-05-22T05:00:31.205Z,8.63
2023-05-22T05:03:00.318Z,8.60
2023-05-22T05:05:28.044Z,8.80
2023-05-22T05:07:56.224Z,8.47
2023-05-22T05:10:24.200Z,8.90
2023-05-22T05:12:52.945Z,9.70
2023-05-22T05:15:23.588Z,9.20
2023-05-22T05:17:51.481Z,9.40
2023-05-22T05:20:19.151Z,10.30
2023-05-22T05:22:46.636Z,10.63
2023-05-22T05:25:15.887Z,9.70
2023-05-22T05:27:43.784Z,9.53
2023-05-22T05:30:11.706Z,9.70
2023-05-22T05:32:51.198Z,9.40
2023-05-22T05:35:31.621Z,9.67
2023-05-22T05:38:04.849Z,10.93
2023-05-22T05:40:33.930Z,10.87
2023-05-22T05:43:01.672Z,10.70
2023-05-22T05:45:30.218Z,10.57
2023-05-22T05:47:59.414Z,9.90
2023-05-22T05:50:26.903Z,9.77
2023-05-22T05:52:55.057Z,10.20
2023-05-22T05:55:22.862Z,9.10
2023-05-22T05:57:50.315Z,8.70
2023-05-22T06:00:38.914Z,9.63
2023-05-22T06:03:08.185Z,10.73
2023-05-22T06:05:47.785Z,10.37
2023-05-22T06:08:22.621Z,10.13
2023-05-22T06:10:50.232Z,9.97
2023-05-22T06:13:32.665Z,10.17
2023-05-22T06:16:02.841Z,9.87
2023-05-22T06:18:33.837Z,10.27
2023-05-22T06:21:01.775Z,9.70
2023-05-22T06:23:29.301Z,9.53
2023-05-22T06:25:57.295Z,10.67
2023-05-22T06:28:25.869Z,9.57
2023-05-22T06:30:53.507Z,10.43
2023-05-22T06:33:23.494Z,10.10
2023-05-22T06:35:52.387Z,9.47
2023-05-22T06:38:20.199Z,10.10
2023-05-22T06:40:47.794Z,9.40
2023-05-22T06:43:19.161Z,9.80
2023-05-22T06:46:00.215Z,9.60
2023-05-22T06:48:40.781Z,9.90
2023-05-22T06:51:17.900Z,9.57
2023-05-22T06:53:50.336Z,9.50
2023-05-22T06:56:22.688Z,8.90
2023-05-22T06:58:54.653Z,9.23
2023-05-22T07:01:25.753Z,9.93
2023-05-22T07:04:05.092Z,8.20
2023-05-22T07:06:38.897Z,7.00
2023-05-22T07:09:08.593Z,6.10
2023-05-22T07:11:36.489Z,6.13
2023-05-22T07:14:03.962Z,6.30
2023-05-22T07:16:32.083Z,6.10
2023-05-22T07:19:00.120Z,6.23
2023-05-22T07:21:27.612Z,6.10
2023-05-22T07:23:57.362Z,5.80
2023-05-22T07:26:27.545Z,4.97
2023-05-22T07:29:02.894Z,5.03
2023-05-22T07:31:31.068Z,5.47
2023-05-22T07:33:58.570Z,4.50
2023-05-22T07:36:26.521Z,4.37
2023-05-22T07:38:53.954Z,4.47
2023-05-22T07:41:24.017Z,4.80
2023-05-22T07:43:51.621Z,4.87
2023-05-22T07:46:23.287Z,4.53
2023-05-22T07:49:07.976Z,4.87
2023-05-22T07:51:36.132Z,4.80
2023-05-22T07:54:03.701Z,4.93
2023-05-22T07:56:32.575Z,4.80
2023-05-22T07:59:00.981Z,4.90
2023-05-22T08:01:28.447Z,4.57
2023-05-22T08:03:56.130Z,5.33
2023-05-22T08:06:23.875Z,4.27
2023-05-22T08:08:52.992Z,4.60
2023-05-22T08:11:21.248Z,4.00
2023-05-22T08:13:50.108Z,4.70
2023-05-22T08:16:17.572Z,4.20
2023-05-22T08:18:45.098Z,4.40
2023-05-22T08:21:12.742Z,4.17
2023-05-22T08:23:40.336Z,4.53
2023-05-22T08:26:09.679Z,3.87
2023-05-22T08:28:37.314Z,4.43
2023-05-22T08:31:06.222Z,4.30
2023-05-22T08:33:33.690Z,4.20
2023-05-22T08:36:01.592Z,4.37
2023-05-22T08:38:29.034Z,4.70
2023-05-22T08:40:56.493Z,4.37
2023-05-22T08:43:24.734Z,4.33
2023-05-22T08:45:57.812Z,4.30
2023-05-22T08:48:29.938Z,4.43
2023-05-22T08:50:58.585Z,4.37
2023-05-22T08:53:28.271Z,4.67
2023-05-22T08:55:56.233Z,4.10
2023-05-22T08:58:24.110Z,3.97
2023-05-22T09:00:52.209Z,4.83
2023-05-22T09:03:21.547Z,4.63
2023-05-22T09:05:52.248Z,5.70
2023-05-22T09:08:21.215Z,5.00
2023-05-22T09:10:48.957Z,5.27
2023-05-22T09:13:24.890Z,5.43
2023-05-22T09:15:52.344Z,5.13
2023-05-22T09:18:21.965Z,5.43
2023-05-22T09:20:51.377Z,5.53
2023-05-22T09:23:20.156Z,5.30
2023-05-22T09:25:47.761Z,5.40
2023-05-22T09:28:15.239Z,5.40
2023-05-22T09:30:43.467Z,4.87
2023-05-22T09:33:14.131Z,5.50
2023-05-22T09:35:42.098Z,6.20
2023-05-22T09:38:12.292Z,5.33
2023-05-22T09:40:40.438Z,5.47
2023-05-22T09:43:08.290Z,5.53
2023-05-22T09:45:35.842Z,5.30
2023-05-22T09:48:03.394Z,6.10
2023-05-22T09:50:31.496Z,5.87
2023-05-22T09:53:01.985Z,5.53
2023-05-22T09:55:32.025Z,5.20
2023-05-22T09:58:04.099Z,5.77
2023-05-22T10:00:31.712Z,5.80
2023-05-22T10:03:03.288Z,5.67
2023-05-22T10:05:31.797Z,5.60
2023-05-22T10:08:11.050Z,5.50
2023-05-22T10:10:40.083Z,5.80
2023-05-22T10:13:07.744Z,5.63
2023-05-22T10:15:35.565Z,6.07
2023-05-22T10:18:03.075Z,5.53
2023-05-22T10:20:30.833Z,5.23
2023-05-22T10:22:58.287Z,5.37
2023-05-22T10:25:26.038Z,5.70
2023-05-22T10:27:55.547Z,5.40
2023-05-22T10:30:24.306Z,5.33
2023-05-22T10:33:31.970Z,6.00
2023-05-22T10:36:03.148Z,5.67
2023-05-22T10:38:51.518Z,6.40
2023-05-22T10:41:19.350Z,5.67
2023-05-22T10:43:50.678Z,5.15
2023-05-22T10:46:18.284Z,5.70
2023-05-22T10:48:46.372Z,5.13
2023-05-22T10:51:14.415Z,4.83
2023-05-22T10:53:45.110Z,5.73
2023-05-22T10:56:13.209Z,5.70
2023-05-22T10:58:42.571Z,5.70
2023-05-22T11:01:13.124Z,5.88
2023-05-22T11:03:57.336Z,5.22
2023-05-22T11:06:31.233Z,5.53
2023-05-22T11:08:58.713Z,5.15
2023-05-22T11:11:26.347Z,5.05
2023-05-22T11:13:53.899Z,5.47
2023-05-22T11:16:22.812Z,5.43
2023-05-22T11:18:50.348Z,5.63
2023-05-22T11:21:17.810Z,5.32
2023-05-22T11:23:46.321Z,5.63
2023-05-22T11:26:22.388Z,5.05
2023-05-22T11:28:50.313Z,5.50
2023-05-22T11:31:18.056Z,5.65
2023-05-22T11:33:47.541Z,5.15
2023-05-22T11:36:15.073Z,5.22
2023-05-22T11:38:43.130Z,5.15
2023-05-22T11:41:11.194Z,5.15
2023-05-22T11:43:38.646Z,5.15
2023-05-22T11:46:07.094Z,5.18
2023-05-22T11:48:34.860Z,5.60
2023-05-22T11:51:04.049Z,5.35
2023-05-22T11:53:32.598Z,5.43
2023-05-22T11:56:04.183Z,5.13
2023-05-22T11:58:31.881Z,5.70
2023-05-22T12:01:00.038Z,5.85
2023-05-22T12:03:28.066Z,6.22
2023-05-22T12:05:56.213Z,7.22
2023-05-22T12:08:25.596Z,5.75
2023-05-22T12:10:53.701Z,5.35
2023-05-22T12:13:25.139Z,5.47
2023-05-22T12:15:54.145Z,5.15
2023-05-22T12:18:21.625Z,5.78
2023-05-22T12:20:52.339Z,5.30
2023-05-22T12:23:23.054Z,4.97
2023-05-22T12:25:58.412Z,5.03
2023-05-22T12:28:25.921Z,5.45
2023-05-22T12:30:53.823Z,5.10
2023-05-22T12:33:21.399Z,5.22
2023-05-22T12:35:51.082Z,5.60
2023-05-22T12:38:21.062Z,5.50
2023-05-22T12:40:48.561Z,5.43
2023-05-22T12:43:17.487Z,5.50
2023-05-22T12:45:44.990Z,5.50
2023-05-22T12:48:12.974Z,5.28
2023-05-22T12:50:40.709Z,5.00
2023-05-22T12:53:08.496Z,4.95
2023-05-22T12:55:36.791Z,4.90
2023-05-22T12:58:04.223Z,5.18
2023-05-22T13:00:33.011Z,4.80
2023-05-22T13:03:00.803Z,4.63
2023-05-22T13:05:28.461Z,4.65
2023-05-22T13:07:56.053Z,4.80
2023-05-22T13:10:23.495Z,5.18
2023-05-22T13:12:51.588Z,4.97
2023-05-22T13:15:19.291Z,4.88
2023-05-22T13:17:48.070Z,4.47
2023-05-22T13:20:16.026Z,4.85
2023-05-22T13:22:43.538Z,5.00
2023-05-22T13:25:11.108Z,5.13
2023-05-22T13:27:38.655Z,5.30
2023-05-22T13:30:06.859Z,4.82
2023-05-22T13:32:34.678Z,4.72
2023-05-22T13:35:03.531Z,4.90
2023-05-22T13:37:31.007Z,4.53
2023-05-22T13:39:58.429Z,5.05
2023-05-22T13:42:26.024Z,4.70
2023-05-22T13:44:53.495Z,4.53
2023-05-22T13:47:22.898Z,4.95
2023-05-22T13:49:50.508Z,4.63
2023-05-22T13:52:19.292Z,4.78
2023-05-22T13:54:46.734Z,4.72
2023-05-22T13:57:14.212Z,4.80
2023-05-22T13:59:41.628Z,4.70
2023-05-22T14:02:09.086Z,4.85
2023-05-22T14:04:36.536Z,4.55
2023-05-22T14:07:04.008Z,4.35
2023-05-22T14:09:32.846Z,4.18
2023-05-22T14:12:00.316Z,4.82
2023-05-22T14:14:27.987Z,4.60
2023-05-22T14:16:55.417Z,4.63
2023-05-22T14:19:22.956Z,4.85
2023-05-22T14:21:51.279Z,4.30
2023-05-22T14:24:18.861Z,4.78
2023-05-22T14:26:47.655Z,4.65
2023-05-22T14:29:15.711Z,3.95
2023-05-22T14:31:49.678Z,3.70
2023-05-22T14:34:18.894Z,4.78
2023-05-22T14:36:46.896Z,3.90
2023-05-22T14:39:14.356Z,4.30
2023-05-22T14:41:41.832Z,4.40
2023-05-22T14:44:10.621Z,4.45
2023-05-22T14:46:38.070Z,4.05
2023-05-22T14:49:05.802Z,4.20
2023-05-22T14:51:33.272Z,4.13
2023-05-22T14:54:00.879Z,4.28
2023-05-22T14:56:28.308Z,4.25
2023-05-22T14:58:55.747Z,4.30
2023-05-22T15:01:24.598Z,4.20
2023-05-22T15:03:52.067Z,4.10
2023-05-22T15:06:19.566Z,4.00
2023-05-22T15:08:47.060Z,4.18
2023-05-22T15:11:14.508Z,4.28
2023-05-22T15:13:41.984Z,3.95
2023-05-22T15:16:09.423Z,4.20
2023-05-22T15:18:38.218Z,4.50
2023-05-22T15:21:05.905Z,4.25
2023-05-22T15:23:33.343Z,4.25
2023-05-22T15:26:00.720Z,4.35
2023-05-22T15:28:28.136Z,4.45
2023-05-22T15:30:55.582Z,4.10
2023-05-22T15:33:23.006Z,4.32
2023-05-22T15:35:52.086Z,3.60
2023-05-22T15:38:20.131Z,4.00
2023-05-22T15:40:47.618Z,4.43
2023-05-22T15:43:15.064Z,4.43
2023-05-22T15:45:43.168Z,3.92
2023-05-22T15:48:10.942Z,3.90
2023-05-22T15:50:38.497Z,4.00
2023-05-22T15:53:07.255Z,4.00
2023-05-22T15:55:34.760Z,3.92
2023-05-22T15:58:05.969Z,4.18
2023-05-22T16:00:38.498Z,3.50
2023-05-22T16:03:08.856Z,3.80
2023-05-22T16:05:36.713Z,4.35
2023-05-22T16:08:04.177Z,4.30
2023-05-22T16:10:32.957Z,4.15
2023-05-22T16:13:00.465Z,4.32
2023-05-22T16:15:28.027Z,3.95
2023-05-22T16:17:55.454Z,4.35
2023-05-22T16:20:22.904Z,4.20
2023-05-22T16:22:51.243Z,4.43
2023-05-22T16:25:19.720Z,4.20
2023-05-22T16:27:48.508Z,4.00
2023-05-22T16:30:17.162Z,4.03
2023-05-22T16:32:45.476Z,4.30
2023-05-22T16:35:13.281Z,4.40
2023-05-22T16:37:41.207Z,4.40
2023-05-22T16:40:09.285Z,4.45
2023-05-22T16:42:38.131Z,4.45
2023-05-22T16:45:07.746Z,4.47
2023-05-22T16:47:35.252Z,4.28
2023-05-22T16:50:02.817Z,4.90
2023-05-22T16:52:30.785Z,4.72
2023-05-22T16:54:58.231Z,4.90
2023-05-22T16:57:26.661Z,4.57
2023-05-22T16:59:55.890Z,5.03
2023-05-22T17:02:26.576Z,4.95
2023-05-22T17:04:54.383Z,5.10
2023-05-22T17:07:22.068Z,4.65
2023-05-22T17:09:49.506Z,4.72
2023-05-22T17:12:17.028Z,5.07
2023-05-22T17:14:44.474Z,4.93
2023-05-22T17:17:11.893Z,4.63
2023-05-22T17:19:40.721Z,4.88
2023-05-22T17:22:08.584Z,4.82
2023-05-22T17:24:35.977Z,4.68
2023-05-22T17:27:04.064Z,5.10
2023-05-22T17:29:31.515Z,4.82
2023-05-22T17:31:59.106Z,4.90
2023-05-22T17:34:26.532Z,4.75
2023-05-22T17:36:55.325Z,4.85
2023-05-22T17:39:23.387Z,5.55
2023-05-22T17:41:51.177Z,5.07
2023-05-22T17:44:18.631Z,5.10
2023-05-22T17:46:46.128Z,4.60
2023-05-22T17:49:13.583Z,4.65
2023-05-22T17:51:41.105Z,4.47
2023-05-22T17:54:10.083Z,4.40
2023-05-22T17:56:37.525Z,4.22
2023-05-22T17:59:05.010Z,4.60
2023-05-22T18:01:32.497Z,4.28
2023-05-22T18:04:01.278Z,4.57
2023-05-22T18:06:28.911Z,4.60
2023-05-22T18:08:56.605Z,4.50
2023-05-22T18:11:26.026Z,4.30
2023-05-22T18:13:53.541Z,4.47
2023-05-22T18:16:21.080Z,4.35
2023-05-22T18:18:48.623Z,4.82
2023-05-22T18:21:16.174Z,4.55
2023-05-22T18:23:43.658Z,4.80
2023-05-22T18:26:11.190Z,4.45
2023-05-22T18:28:41.538Z,4.60
2023-05-22T18:31:09.152Z,4.97
2023-05-22T18:33:38.253Z,5.07
2023-05-22T18:36:05.922Z,4.47
2023-05-22T18:38:33.374Z,4.88
2023-05-22T18:41:00.773Z,5.00
2023-05-22T18:43:28.543Z,4.95
2023-05-22T18:45:57.881Z,4.47
2023-05-22T18:48:27.019Z,4.43
2023-05-22T18:50:57.142Z,5.95
2023-05-22T18:53:25.966Z,6.65
2023-05-22T18:55:53.739Z,6.13
2023-05-22T18:58:21.540Z,5.82
2023-05-22T19:00:49.104Z,6.35
2023-05-22T19:03:17.941Z,6.47
2023-05-22T19:05:45.352Z,6.35
2023-05-22T19:08:12.912Z,6.13
2023-05-22T19:10:40.466Z,6.40
2023-05-22T19:13:08.089Z,6.53
2023-05-22T19:15:35.796Z,7.15
2023-05-22T19:18:03.276Z,5.97
2023-05-22T19:20:32.108Z,6.57
2023-05-22T19:22:59.554Z,6.60
2023-05-22T19:25:26.981Z,6.80
2023-05-22T19:27:54.429Z,6.60
2023-05-22T19:30:22.223Z,6.70
2023-05-22T19:32:50.674Z,6.35
2023-05-22T19:35:18.365Z,6.77
2023-05-22T19:37:47.388Z,6.40
2023-05-22T19:40:14.834Z,7.47
2023-05-22T19:42:42.478Z,6.40
2023-05-22T19:45:10.266Z,6.70
2023-05-22T19:47:37.714Z,6.65
2023-05-22T19:50:05.476Z,6.80
2023-05-22T19:52:32.993Z,6.23
2023-05-22T19:55:01.818Z,7.10
2023-05-22T19:57:29.411Z,7.33
2023-05-22T19:59:56.828Z,6.97
2023-05-22T20:02:24.281Z,6.97
2023-05-22T20:04:51.900Z,7.30
2023-05-22T20:07:19.292Z,7.27
2023-05-22T20:09:46.778Z,7.40
2023-05-22T20:12:17.450Z,7.10
2023-05-22T20:14:44.911Z,7.23
2023-05-22T20:17:12.357Z,7.47
2023-05-22T20:19:39.793Z,7.25
2023-05-22T20:22:07.728Z,7.60
2023-05-22T20:24:35.516Z,7.57
2023-05-22T20:27:05.057Z,7.60
2023-05-22T20:29:34.052Z,7.63
2023-05-22T20:32:01.560Z,7.30
2023-05-22T20:34:29.169Z,7.53
2023-05-22T20:36:58.353Z,7.57
2023-05-22T20:39:26.322Z,7.70
2023-05-22T20:41:54.332Z,7.47
2023-05-22T20:44:24.565Z,7.00
2023-05-22T20:46:54.008Z,7.67
2023-05-22T20:49:21.589Z,7.63
2023-05-22T20:51:49.993Z,8.03
2023-05-22T20:54:17.543Z,8.60
2023-05-22T20:56:44.983Z,8.10
2023-05-22T20:59:12.574Z,7.93
2023-05-22T21:01:40.654Z,7.67
2023-05-22T21:04:09.674Z,8.20
2023-05-22T21:06:37.250Z,8.23
2023-05-22T21:09:04.701Z,8.43
2023-05-22T21:11:32.095Z,8.23
2023-05-22T21:13:59.480Z,8.43
2023-05-22T21:16:26.894Z,8.07
2023-05-22T21:18:54.381Z,7.90
2023-05-22T21:21:23.181Z,8.10
2023-05-22T21:23:51.313Z,7.80
2023-05-22T21:26:18.767Z,7.40
2023-05-22T21:28:46.380Z,8.20
2023-05-22T21:31:13.795Z,8.20
2023-05-22T21:33:41.214Z,7.30
2023-05-22T21:36:08.682Z,6.83
2023-05-22T21:38:37.421Z,7.23
2023-05-22T21:41:04.987Z,7.00
2023-05-22T21:43:32.449Z,6.90
2023-05-22T21:45:59.935Z,7.27
2023-05-22T21:48:27.391Z,7.73
2023-05-22T21:50:54.835Z,7.67
2023-05-22T21:53:22.362Z,7.67
2023-05-22T21:55:51.274Z,7.93
2023-05-22T21:58:18.718Z,7.47
2023-05-22T22:00:46.133Z,7.33
2023-05-22T22:03:13.815Z,7.40
2023-05-22T22:05:41.358Z,7.13
2023-05-22T22:08:08.809Z,7.33
2023-05-22T22:10:36.262Z,7.83
2023-05-22T22:13:05.097Z,7.80
2023-05-22T22:15:33.712Z,7.50
2023-05-22T22:18:02.278Z,7.53
2023-05-22T22:20:43.641Z,8.23
2023-05-22T22:23:12.682Z,7.27
2023-05-22T22:25:40.196Z,7.80
2023-05-22T22:28:09.016Z,7.40
2023-05-22T22:30:36.483Z,7.50
2023-05-22T22:33:04.004Z,7.50
2023-05-22T22:35:31.605Z,7.13
2023-05-22T22:37:59.417Z,8.00
2023-05-22T22:40:27.158Z,7.03
2023-05-22T22:42:54.642Z,8.00
2023-05-22T22:45:23.398Z,7.73
2023-05-22T22:47:50.857Z,8.43
2023-05-22T22:50:18.353Z,8.10
2023-05-22T22:52:46.202Z,8.43
2023-05-22T22:55:13.837Z,8.03
2023-05-22T22:57:43.082Z,8.23
2023-05-22T23:00:13.060Z,7.97
2023-05-22T23:02:41.854Z,7.30
2023-05-22T23:05:09.815Z,8.20
2023-05-22T23:07:37.228Z,7.93
2023-05-22T23:10:04.880Z,7.50
2023-05-22T23:12:35.172Z,7.77
2023-05-22T23:15:03.117Z,7.77
2023-05-22T23:17:31.033Z,7.43
2023-05-22T23:19:59.848Z,7.70
2023-05-22T23:22:27.282Z,7.73
2023-05-22T23:24:54.721Z,7.87
2023-05-22T23:27:22.124Z,7.03
2023-05-22T23:29:49.592Z,7.37
2023-05-22T23:32:17.003Z,7.70
2023-05-22T23:34:44.493Z,7.50
2023-05-22T23:37:13.311Z,7.60
2023-05-22T23:39:40.807Z,8.17
2023-05-22T23:42:09.746Z,8.53
2023-05-22T23:44:37.500Z,8.30
2023-05-22T23:47:05.334Z,8.13
2023-05-22T23:49:32.938Z,7.70
2023-05-22T23:52:00.406Z,7.53
2023-05-22T23:54:29.390Z,8.20
2023-05-22T23:56:56.838Z,8.07
2023-05-22T23:59:24.280Z,8.10
